createdAt,value
2018-12-15T00:07:01.335Z,1.9
2018-12-15T00:22:01.382Z,1.9
2018-12-15T00:37:01.355Z,1.9
2018-12-15T00:52:01.332Z,1.9
2018-12-15T01:07:01.359Z,1.9
2018-12-15T01:22:01.328Z,1.9
2018-12-15T01:37:01.419Z,1.9
2018-12-15T01:52:01.320Z,1.9
2018-12-15T01:57:01.323Z,1.8
2018-12-15T02:12:01.429Z,1.8
2018-12-15T02:27:01.463Z,1.8
2018-12-15T02:42:01.387Z,1.8
2018-12-15T02:57:01.335Z,1.7
2018-12-15T03:12:01.334Z,1.7
2018-12-15T03:22:01.397Z,1.6
2018-12-15T03:37:01.359Z,1.6
2018-12-15T03:52:01.266Z,1.6
2018-12-15T03:57:01.267Z,1.5
2018-12-15T04:12:01.402Z,1.5
2018-12-15T04:27:01.391Z,1.5
2018-12-15T04:42:01.385Z,1.5
2018-12-15T04:57:01.356Z,1.5
2018-12-15T05:12:01.325Z,1.5
2018-12-15T05:27:01.300Z,1.5
2018-12-15T05:42:01.437Z,1.5
2018-12-15T05:57:01.334Z,1.5
2018-12-15T06:12:01.389Z,1.5
2018-12-15T06:27:01.295Z,1.5
2018-12-15T06:37:01.393Z,1.6
2018-12-15T06:52:01.451Z,1.6
2018-12-15T07:02:01.352Z,1.5
2018-12-15T07:17:01.323Z,1.5
2018-12-15T07:32:01.328Z,1.5
2018-12-15T07:47:01.334Z,1.5
2018-12-15T08:02:01.393Z,1.5
2018-12-15T08:18:01.336Z,1.5
2018-12-15T08:33:01.391Z,1.5
2018-12-15T08:48:01.373Z,1.5
2018-12-15T08:54:01.315Z,1.6
2018-12-15T09:09:01.329Z,1.6
2018-12-15T09:14:01.391Z,1.7
2018-12-15T09:29:01.368Z,1.8
2018-12-15T09:44:01.502Z,1.9
2018-12-15T09:54:01.541Z,2.0
2018-12-15T10:09:01.380Z,2.1
2018-12-15T10:24:01.397Z,2.2
2018-12-15T10:34:01.267Z,2.3
2018-12-15T10:44:01.484Z,2.4
2018-12-15T10:59:01.322Z,2.4
2018-12-15T11:04:01.322Z,2.5
2018-12-15T11:19:01.352Z,2.5
2018-12-15T11:34:01.328Z,2.5
2018-12-15T11:49:01.325Z,2.6
2018-12-15T12:04:02.355Z,2.6
2018-12-15T12:09:01.336Z,2.7
2018-12-15T12:19:01.423Z,2.8
2018-12-15T12:34:01.429Z,2.7
2018-12-15T12:39:01.308Z,2.6
2018-12-15T12:49:01.421Z,2.5
2018-12-15T12:54:01.396Z,2.4
2018-12-15T13:04:01.399Z,2.5
2018-12-15T13:19:01.407Z,2.5
2018-12-15T13:25:01.318Z,2.4
2018-12-15T13:30:01.274Z,2.4
2018-12-15T13:45:01.335Z,2.4
2018-12-15T13:50:01.254Z,2.3
2018-12-15T14:00:01.468Z,2.3
2018-12-15T14:10:01.458Z,2.2
2018-12-15T14:15:01.426Z,2.2
2018-12-15T14:20:01.264Z,2.1
2018-12-15T14:30:01.380Z,2.0
2018-12-15T14:35:01.323Z,1.9
2018-12-15T14:40:01.256Z,1.8
2018-12-15T14:45:01.299Z,1.8
2018-12-15T14:50:01.391Z,1.7
2018-12-15T15:00:02.189Z,1.6
2018-12-15T15:10:01.397Z,1.5
2018-12-15T15:15:01.429Z,1.5
2018-12-15T15:25:01.396Z,1.4
2018-12-15T15:36:01.330Z,1.3
2018-12-15T15:41:01.388Z,1.2
2018-12-15T15:51:01.671Z,1.1
2018-12-15T16:01:01.357Z,1.0
2018-12-15T16:16:02.525Z,1.0
2018-12-15T16:26:01.313Z,0.9
2018-12-15T16:36:02.357Z,0.8
2018-12-15T16:41:02.413Z,0.7
2018-12-15T16:46:01.269Z,0.6
2018-12-15T16:51:01.424Z,0.5
2018-12-15T16:56:01.461Z,0.4
2018-12-15T17:01:01.327Z,0.3
2018-12-15T17:06:01.283Z,0.2
2018-12-15T17:12:01.323Z,0.1
2018-12-15T17:27:01.517Z,-0.1
2018-12-15T17:42:01.424Z,-0.1
2018-12-15T17:47:02.324Z,-0.2
2018-12-15T18:02:01.345Z,-0.2
2018-12-15T18:17:01.341Z,-0.2
2018-12-15T18:32:01.341Z,-0.2
2018-12-15T18:47:01.300Z,-0.2
2018-12-15T19:02:01.410Z,-0.2
2018-12-15T19:17:01.323Z,-0.3
2018-12-15T19:32:01.267Z,-0.3
2018-12-15T19:47:01.457Z,-0.3
2018-12-15T20:02:01.425Z,-0.3
2018-12-15T20:17:01.400Z,-0.3
2018-12-15T20:27:01.317Z,-0.2
2018-12-15T20:42:02.527Z,-0.2
2018-12-15T20:57:01.428Z,-0.2
2018-12-15T21:12:01.386Z,-0.2
2018-12-15T21:27:01.322Z,-0.2
2018-12-15T21:32:01.352Z,-0.1
2018-12-15T21:47:01.315Z,-0.1
2018-12-15T22:02:01.456Z,-0.1
2018-12-15T22:27:01.457Z,-0.1
2018-12-15T22:42:01.380Z,-0.2
2018-12-15T22:52:01.316Z,-0.3
2018-12-15T23:07:01.400Z,-0.3
2018-12-15T23:22:01.300Z,-0.3
2018-12-15T23:38:02.094Z,-0.3
2018-12-15T23:43:01.387Z,-0.4
2018-12-15T23:58:01.417Z,-0.4
